This is the latest recevied weather packets stored in our database for station/object I8ZSE-10. If no packets are shown the sender has not sent any weather packets the latest 10 day(s).
| Time | Temp. | Humidity | Pressure | Rain* | Wind** | Luminosity | Snow |
|---|---|---|---|---|---|---|---|
| 1777794608 | 14.44° C | 41% | 1020.2 hPa | 0 mm | - | - | - |
| 1777794008 | 13.89° C | 42% | 1020 hPa | 0 mm | - | - | - |
| 1777793408 | 13.89° C | 42% | 1019.9 hPa | 0 mm | - | - | - |
| 1777792808 | 13.33° C | 43% | 1019.8 hPa | 0 mm | - | - | - |
| 1777792208 | 13.33° C | 45% | 1019.8 hPa | 0 mm | - | - | - |
| 1777791608 | 12.78° C | 47% | 1019.6 hPa | 0 mm | - | - | - |
| 1777791008 | 12.22° C | 49% | 1019.5 hPa | 0 mm | - | - | - |
| 1777790408 | 11.67° C | 51% | 1019.4 hPa | 0 mm | - | - | - |
| 1777789808 | 11.11° C | 53% | 1019.2 hPa | 0 mm | - | - | - |
| 1777789209 | 10.56° C | 55% | 1019.1 hPa | 0 mm | - | - | - |
| 1777788608 | 10° C | 57% | 1019 hPa | 0 mm | - | - | - |
| 1777788008 | 9.44° C | 60% | 1018.9 hPa | 0 mm | - | - | - |
| 1777787408 | 8.89° C | 61% | 1018.7 hPa | 0 mm | - | - | - |
| 1777786808 | 8.33° C | 63% | 1018.6 hPa | 0 mm | - | - | - |
| 1777786208 | 7.78° C | 65% | 1018.4 hPa | 0 mm | - | - | - |
| 1777785609 | 7.22° C | 66% | 1018.2 hPa | 0 mm | - | - | - |
| 1777785008 | 6.67° C | 67% | 1018.1 hPa | 0 mm | - | - | - |
| 1777784408 | 6.67° C | 66% | 1018 hPa | 0 mm | - | - | - |
| 1777783808 | 6.67° C | 66% | 1018.1 hPa | 0 mm | - | - | - |
| 1777783208 | 6.11° C | 68% | 1018 hPa | 0 mm | - | - | - |
| 1777782608 | 6.11° C | 69% | 1017.9 hPa | 0 mm | - | - | - |
| 1777782008 | 5.56° C | 69% | 1017.9 hPa | 0 mm | - | - | - |
| 1777781408 | 5.56° C | 69% | 1017.8 hPa | 0 mm | - | - | - |
| 1777780808 | 5.56° C | 70% | 1017.7 hPa | 0 mm | - | - | - |
| 1777780209 | 5.56° C | 70% | 1017.8 hPa | 0 mm | - | - | - |
* Rain latest hour (hover to see other rain measurements)
** Current wind speed in m/s (hover to see current wind gust speed)